sensor_id;sensor_type;location;lat;lon;timestamp;pressure;altitude;pressure_sealevel;temperature;humidity
6134;BME280;3098;42.678;23.364;2023-04-07T00:02:09;94547.91;;;1.14;68.47
6134;BME280;3098;42.678;23.364;2023-04-07T00:04:37;94631.66;;;1.69;68.62
6134;BME280;3098;42.678;23.364;2023-04-07T00:07:04;94647.34;;;1.69;68.51
6134;BME280;3098;42.678;23.364;2023-04-07T00:09:31;94646.28;;;1.70;68.31
6134;BME280;3098;42.678;23.364;2023-04-07T00:11:59;94652.03;;;1.67;68.61
6134;BME280;3098;42.678;23.364;2023-04-07T00:14:27;94638.44;;;1.65;68.67
6134;BME280;3098;42.678;23.364;2023-04-07T00:16:56;94578.50;;;1.24;68.72
6134;BME280;3098;42.678;23.364;2023-04-07T00:19:24;94615.38;;;1.42;68.01
6134;BME280;3098;42.678;23.364;2023-04-07T00:21:51;94616.97;;;1.43;68.37
6134;BME280;3098;42.678;23.364;2023-04-07T00:24:19;94641.06;;;1.70;67.67
6134;BME280;3098;42.678;23.364;2023-04-07T00:26:46;94646.56;;;1.69;67.97
6134;BME280;3098;42.678;23.364;2023-04-07T00:29:13;94580.31;;;1.23;67.46
6134;BME280;3098;42.678;23.364;2023-04-07T00:31:40;94635.81;;;1.60;67.22
6134;BME280;3098;42.678;23.364;2023-04-07T00:34:09;94627.19;;;1.55;68.56
6134;BME280;3098;42.678;23.364;2023-04-07T00:36:36;94636.03;;;1.39;76.28
6134;BME280;3098;42.678;23.364;2023-04-07T00:39:03;94487.81;;;0.27;80.57
6134;BME280;3098;42.678;23.364;2023-04-07T00:41:33;94635.38;;;1.06;84.25
6134;BME280;3098;42.678;23.364;2023-04-07T00:44:00;94590.28;;;0.69;86.82
6134;BME280;3098;42.678;23.364;2023-04-07T00:46:27;94571.25;;;0.22;89.47
6134;BME280;3098;42.678;23.364;2023-04-07T00:48:54;94636.16;;;0.60;91.66
6134;BME280;3098;42.678;23.364;2023-04-07T00:51:23;94634.28;;;0.45;93.03
6134;BME280;3098;42.678;23.364;2023-04-07T00:53:51;94635.28;;;0.39;94.08
6134;BME280;3098;42.678;23.364;2023-04-07T00:56:18;94643.25;;;0.28;95.08
6134;BME280;3098;42.678;23.364;2023-04-07T00:58:45;94592.16;;;-0.05;96.57
6134;BME280;3098;42.678;23.364;2023-04-07T01:01:17;94627.81;;;0.21;97.28
6134;BME280;3098;42.678;23.364;2023-04-07T01:03:48;94635.13;;;0.19;97.52
6134;BME280;3098;42.678;23.364;2023-04-07T01:06:20;94630.31;;;0.06;98.59
6134;BME280;3098;42.678;23.364;2023-04-07T01:09:00;94602.38;;;-0.30;100.00
6134;BME280;3098;42.678;23.364;2023-04-07T01:11:34;94585.41;;;-0.33;100.00
6134;BME280;3098;42.678;23.364;2023-04-07T01:14:03;94567.28;;;-0.49;100.00
6134;BME280;3098;42.678;23.364;2023-04-07T01:16:34;94629.28;;;-0.20;100.00
6134;BME280;3098;42.678;23.364;2023-04-07T01:19:05;94626.66;;;-0.25;100.00
6134;BME280;3098;42.678;23.364;2023-04-07T01:21:36;94629.56;;;-0.21;100.00
6134;BME280;3098;42.678;23.364;2023-04-07T01:24:33;94587.63;;;-0.46;100.00
6134;BME280;3098;42.678;23.364;2023-04-07T01:27:14;94621.78;;;-0.16;100.00
6134;BME280;3098;42.678;23.364;2023-04-07T01:29:45;94612.41;;;-0.17;100.00
6134;BME280;3098;42.678;23.364;2023-04-07T01:32:17;94594.97;;;-0.43;100.00
6134;BME280;3098;42.678;23.364;2023-04-07T01:34:48;94610.03;;;-0.19;100.00
6134;BME280;3098;42.678;23.364;2023-04-07T01:37:15;94615.53;;;-0.15;100.00
6134;BME280;3098;42.678;23.364;2023-04-07T01:39:43;94614.56;;;-0.09;100.00
6134;BME280;3098;42.678;23.364;2023-04-07T01:42:11;94360.81;;;-1.67;100.00
6134;BME280;3098;42.678;23.364;2023-04-07T01:44:39;94562.66;;;-0.42;100.00
6134;BME280;3098;42.678;23.364;2023-04-07T01:47:08;94406.66;;;-1.34;100.00
6134;BME280;3098;42.678;23.364;2023-04-07T01:49:36;94611.06;;;0.12;100.00
6134;BME280;3098;42.678;23.364;2023-04-07T01:52:04;94617.09;;;0.18;100.00
6134;BME280;3098;42.678;23.364;2023-04-07T01:54:33;94608.94;;;0.09;100.00
6134;BME280;3098;42.678;23.364;2023-04-07T01:57:00;94605.84;;;0.12;100.00
6134;BME280;3098;42.678;23.364;2023-04-07T01:59:28;94530.16;;;-0.35;100.00
6134;BME280;3098;42.678;23.364;2023-04-07T02:01:55;94568.16;;;-0.07;100.00
6134;BME280;3098;42.678;23.364;2023-04-07T02:04:31;94606.41;;;0.14;100.00
6134;BME280;3098;42.678;23.364;2023-04-07T02:07:08;94607.44;;;0.18;100.00
6134;BME280;3098;42.678;23.364;2023-04-07T02:09:38;94582.69;;;-0.16;100.00
6134;BME280;3098;42.678;23.364;2023-04-07T02:12:08;94600.88;;;0.11;100.00
6134;BME280;3098;42.678;23.364;2023-04-07T02:14:37;94593.63;;;0.18;100.00
6134;BME280;3098;42.678;23.364;2023-04-07T02:17:05;94606.41;;;0.14;100.00
6134;BME280;3098;42.678;23.364;2023-04-07T02:19:34;94568.75;;;0.00;100.00
6134;BME280;3098;42.678;23.364;2023-04-07T02:22:02;94603.56;;;0.21;100.00
6134;BME280;3098;42.678;23.364;2023-04-07T02:24:30;94611.72;;;0.34;100.00
6134;BME280;3098;42.678;23.364;2023-04-07T02:26:56;94566.72;;;0.12;100.00
6134;BME280;3098;42.678;23.364;2023-04-07T02:29:25;94572.56;;;0.24;100.00
6134;BME280;3098;42.678;23.364;2023-04-07T02:31:52;94606.09;;;0.47;100.00
6134;BME280;3098;42.678;23.364;2023-04-07T02:34:20;94604.31;;;0.53;100.00
6134;BME280;3098;42.678;23.364;2023-04-07T02:36:48;94599.09;;;0.58;100.00
6134;BME280;3098;42.678;23.364;2023-04-07T02:39:15;94576.91;;;0.50;100.00
6134;BME280;3098;42.678;23.364;2023-04-07T02:41:42;94606.22;;;0.68;100.00
6134;BME280;3098;42.678;23.364;2023-04-07T02:44:09;94573.22;;;0.51;100.00
6134;BME280;3098;42.678;23.364;2023-04-07T02:46:36;94604.41;;;0.73;100.00
6134;BME280;3098;42.678;23.364;2023-04-07T02:49:03;94381.38;;;-0.75;100.00
6134;BME280;3098;42.678;23.364;2023-04-07T02:51:30;94615.69;;;0.89;100.00
6134;BME280;3098;42.678;23.364;2023-04-07T02:53:58;94588.69;;;0.63;99.88
6134;BME280;3098;42.678;23.364;2023-04-07T02:56:26;94601.00;;;0.68;99.13
6134;BME280;3098;42.678;23.364;2023-04-07T02:58:53;94621.72;;;0.89;98.62
6134;BME280;3098;42.678;23.364;2023-04-07T03:01:20;94520.94;;;0.31;97.88
6134;BME280;3098;42.678;23.364;2023-04-07T03:03:46;94616.25;;;0.91;97.94
6134;BME280;3098;42.678;23.364;2023-04-07T03:06:14;94608.94;;;0.88;98.10
6134;BME280;3098;42.678;23.364;2023-04-07T03:08:41;94593.41;;;0.66;97.82
6134;BME280;3098;42.678;23.364;2023-04-07T03:11:09;94621.50;;;0.96;97.79
6134;BME280;3098;42.678;23.364;2023-04-07T03:13:36;94587.75;;;0.79;97.67
6134;BME280;3098;42.678;23.364;2023-04-07T03:16:03;94524.72;;;0.50;97.87
6134;BME280;3098;42.678;23.364;2023-04-07T03:18:30;94543.31;;;0.74;97.75
6134;BME280;3098;42.678;23.364;2023-04-07T03:20:57;94618.38;;;0.99;97.54
6134;BME280;3098;42.678;23.364;2023-04-07T03:23:24;94576.22;;;0.75;97.62
6134;BME280;3098;42.678;23.364;2023-04-07T03:25:54;94605.53;;;0.92;97.10
6134;BME280;3098;42.678;23.364;2023-04-07T03:28:23;94464.38;;;-0.15;96.79
6134;BME280;3098;42.678;23.364;2023-04-07T03:30:50;94604.13;;;0.70;96.99
6134;BME280;3098;42.678;23.364;2023-04-07T03:33:17;94603.84;;;0.71;97.85
6134;BME280;3098;42.678;23.364;2023-04-07T03:35:44;94611.38;;;0.63;98.09
6134;BME280;3098;42.678;23.364;2023-04-07T03:38:11;94598.56;;;0.56;98.58
6134;BME280;3098;42.678;23.364;2023-04-07T03:40:38;94605.63;;;0.55;98.54
6134;BME280;3098;42.678;23.364;2023-04-07T03:43:06;94608.47;;;0.54;98.78
6134;BME280;3098;42.678;23.364;2023-04-07T03:45:38;94611.28;;;0.42;98.74
6134;BME280;3098;42.678;23.364;2023-04-07T03:48:06;94611.22;;;0.37;98.25
6134;BME280;3098;42.678;23.364;2023-04-07T03:50:35;94611.22;;;0.37;98.71
6134;BME280;3098;42.678;23.364;2023-04-07T03:53:02;94611.84;;;0.49;98.70
6134;BME280;3098;42.678;23.364;2023-04-07T03:55:29;94509.19;;;-0.18;99.34
6134;BME280;3098;42.678;23.364;2023-04-07T03:57:56;94571.75;;;0.19;100.00
6134;BME280;3098;42.678;23.364;2023-04-07T04:00:24;94572.44;;;0.09;100.00
6134;BME280;3098;42.678;23.364;2023-04-07T04:02:53;94604.66;;;0.30;100.00
6134;BME280;3098;42.678;23.364;2023-04-07T04:05:19;94623.75;;;0.35;100.00
6134;BME280;3098;42.678;23.364;2023-04-07T04:07:46;94580.22;;;0.04;100.00
6134;BME280;3098;42.678;23.364;2023-04-07T04:10:16;94629.22;;;0.34;100.00
6134;BME280;3098;42.678;23.364;2023-04-07T04:12:43;94636.78;;;0.35;100.00
6134;BME280;3098;42.678;23.364;2023-04-07T04:15:10;94581.81;;;0.05;100.00
6134;BME280;3098;42.678;23.364;2023-04-07T04:17:37;94631.03;;;0.33;100.00
6134;BME280;3098;42.678;23.364;2023-04-07T04:20:08;94632.38;;;0.36;100.00
6134;BME280;3098;42.678;23.364;2023-04-07T04:22:35;94630.25;;;0.33;100.00
6134;BME280;3098;42.678;23.364;2023-04-07T04:25:04;94631.34;;;0.37;100.00
6134;BME280;3098;42.678;23.364;2023-04-07T04:27:31;94634.28;;;0.45;100.00
6134;BME280;3098;42.678;23.364;2023-04-07T04:29:58;94646.03;;;0.48;100.00
6134;BME280;3098;42.678;23.364;2023-04-07T04:32:25;94628.50;;;0.43;100.00
6134;BME280;3098;42.678;23.364;2023-04-07T04:34:52;94638.06;;;0.70;100.00
6134;BME280;3098;42.678;23.364;2023-04-07T04:37:21;94648.22;;;0.66;100.00
6134;BME280;3098;42.678;23.364;2023-04-07T04:39:48;94657.41;;;0.74;100.00
6134;BME280;3098;42.678;23.364;2023-04-07T04:42:15;94629.19;;;0.71;99.55
6134;BME280;3098;42.678;23.364;2023-04-07T04:44:42;94535.50;;;0.22;98.59
6134;BME280;3098;42.678;23.364;2023-04-07T04:47:09;94614.09;;;0.83;97.82
6134;BME280;3098;42.678;23.364;2023-04-07T04:49:36;94650.00;;;1.07;97.28
6134;BME280;3098;42.678;23.364;2023-04-07T04:52:03;94660.47;;;1.12;96.53
6134;BME280;3098;42.678;23.364;2023-04-07T04:54:32;94629.59;;;0.99;95.63
6134;BME280;3098;42.678;23.364;2023-04-07T04:56:59;94656.34;;;1.27;95.17
6134;BME280;3098;42.678;23.364;2023-04-07T04:59:26;94574.72;;;0.89;95.73
6134;BME280;3098;42.678;23.364;2023-04-07T05:01:53;94664.56;;;1.60;95.75
6134;BME280;3098;42.678;23.364;2023-04-07T05:04:20;94672.44;;;1.70;95.23
6134;BME280;3098;42.678;23.364;2023-04-07T05:06:47;94671.91;;;1.68;94.20
6134;BME280;3098;42.678;23.364;2023-04-07T05:09:15;94634.78;;;1.66;92.09
6134;BME280;3098;42.678;23.364;2023-04-07T05:11:43;94612.06;;;1.72;91.23
6134;BME280;3098;42.678;23.364;2023-04-07T05:14:10;94677.25;;;2.39;91.16
6134;BME280;3098;42.678;23.364;2023-04-07T05:16:37;94681.44;;;2.35;88.62
6134;BME280;3098;42.678;23.364;2023-04-07T05:19:04;94679.84;;;2.09;88.46
6134;BME280;3098;42.678;23.364;2023-04-07T05:21:31;94612.56;;;1.59;88.51
6134;BME280;3098;42.678;23.364;2023-04-07T05:23:58;94580.09;;;1.45;89.44
6134;BME280;3098;42.678;23.364;2023-04-07T05:26:25;94691.63;;;2.42;89.10
6134;BME280;3098;42.678;23.364;2023-04-07T05:28:54;94624.13;;;2.08;87.70
6134;BME280;3098;42.678;23.364;2023-04-07T05:31:21;94689.53;;;2.74;87.09
6134;BME280;3098;42.678;23.364;2023-04-07T05:33:48;94690.59;;;2.78;86.62
6134;BME280;3098;42.678;23.364;2023-04-07T05:36:15;94643.41;;;2.93;85.24
6134;BME280;3098;42.678;23.364;2023-04-07T05:38:42;94656.88;;;3.35;84.59
6134;BME280;3098;42.678;23.364;2023-04-07T05:41:09;94690.84;;;3.71;81.68
6134;BME280;3098;42.678;23.364;2023-04-07T05:43:36;94605.56;;;3.24;80.58
6134;BME280;3098;42.678;23.364;2023-04-07T05:46:05;94638.34;;;3.22;82.07
6134;BME280;3098;42.678;23.364;2023-04-07T05:48:32;94645.88;;;3.38;81.25
6134;BME280;3098;42.678;23.364;2023-04-07T05:51:00;94692.88;;;3.84;80.82
6134;BME280;3098;42.678;23.364;2023-04-07T05:53:27;94690.97;;;3.99;80.32
6134;BME280;3098;42.678;23.364;2023-04-07T05:55:54;94690.38;;;4.07;78.36
6134;BME280;3098;42.678;23.364;2023-04-07T05:58:21;94670.00;;;3.94;78.08
6134;BME280;3098;42.678;23.364;2023-04-07T06:00:49;94675.44;;;4.08;77.43
6134;BME280;3098;42.678;23.364;2023-04-07T06:03:17;94690.00;;;3.80;79.15
6134;BME280;3098;42.678;23.364;2023-04-07T06:05:45;94688.84;;;4.01;80.62
6134;BME280;3098;42.678;23.364;2023-04-07T06:08:11;94684.72;;;4.29;79.26
6134;BME280;3098;42.678;23.364;2023-04-07T06:10:39;94682.94;;;4.58;76.57
6134;BME280;3098;42.678;23.364;2023-04-07T06:13:08;94635.31;;;4.36;73.35
6134;BME280;3098;42.678;23.364;2023-04-07T06:15:35;94692.84;;;5.48;72.10
6134;BME280;3098;42.678;23.364;2023-04-07T06:18:02;94678.06;;;6.69;64.72
6134;BME280;3098;42.678;23.364;2023-04-07T06:20:34;94508.09;;;6.39;58.09
6134;BME280;3098;42.678;23.364;2023-04-07T06:23:01;94617.75;;;7.76;54.10
6134;BME280;3098;42.678;23.364;2023-04-07T06:25:34;94670.78;;;9.66;50.72
6134;BME280;3098;42.678;23.364;2023-04-07T06:28:03;94655.34;;;10.42;45.50
6134;BME280;3098;42.678;23.364;2023-04-07T06:30:30;94616.97;;;11.95;41.84
6134;BME280;3098;42.678;23.364;2023-04-07T06:32:57;94476.81;;;10.84;39.33
6134;BME280;3098;42.678;23.364;2023-04-07T06:35:24;94717.63;;;12.26;40.49
6134;BME280;3098;42.678;23.364;2023-04-07T06:37:54;94536.19;;;9.51;41.62
6134;BME280;3098;42.678;23.364;2023-04-07T06:40:21;94622.91;;;10.36;43.23
6134;BME280;3098;42.678;23.364;2023-04-07T06:42:48;94660.22;;;11.67;40.37
6134;BME280;3098;42.678;23.364;2023-04-07T06:45:16;94696.31;;;11.76;39.74
6134;BME280;3098;42.678;23.364;2023-04-07T06:47:43;94310.13;;;8.18;41.19
6134;BME280;3098;42.678;23.364;2023-04-07T06:50:11;94609.91;;;8.87;43.25
6134;BME280;3098;42.678;23.364;2023-04-07T06:52:38;94588.94;;;9.30;43.06
6134;BME280;3098;42.678;23.364;2023-04-07T06:55:08;94564.44;;;9.90;41.18
6134;BME280;3098;42.678;23.364;2023-04-07T06:57:36;94703.25;;;12.89;38.16
6134;BME280;3098;42.678;23.364;2023-04-07T07:00:04;94635.84;;;12.44;37.08
6134;BME280;3098;42.678;23.364;2023-04-07T07:02:32;94595.59;;;10.70;38.93
6134;BME280;3098;42.678;23.364;2023-04-07T07:05:00;94694.75;;;10.09;40.76
6134;BME280;3098;42.678;23.364;2023-04-07T07:07:28;94629.59;;;10.76;40.58
6134;BME280;3098;42.678;23.364;2023-04-07T07:09:55;94651.22;;;11.97;38.42
6134;BME280;3098;42.678;23.364;2023-04-07T07:12:24;94687.84;;;12.95;36.35
6134;BME280;3098;42.678;23.364;2023-04-07T07:14:51;94686.91;;;12.58;36.50
6134;BME280;3098;42.678;23.364;2023-04-07T07:17:19;94697.41;;;11.67;37.96
6134;BME280;3098;42.678;23.364;2023-04-07T07:19:46;94703.38;;;13.13;35.70
6134;BME280;3098;42.678;23.364;2023-04-07T07:22:14;94705.97;;;14.27;33.97
6134;BME280;3098;42.678;23.364;2023-04-07T07:24:41;94656.53;;;14.18;33.55
6134;BME280;3098;42.678;23.364;2023-04-07T07:27:09;94551.78;;;15.82;30.08
6134;BME280;3098;42.678;23.364;2023-04-07T07:29:37;94634.03;;;14.55;31.42
6134;BME280;3098;42.678;23.364;2023-04-07T07:32:04;94704.63;;;13.73;33.64
6134;BME280;3098;42.678;23.364;2023-04-07T07:34:32;94693.66;;;12.97;34.50
6134;BME280;3098;42.678;23.364;2023-04-07T07:37:01;94645.84;;;10.49;37.76
6134;BME280;3098;42.678;23.364;2023-04-07T07:39:29;94709.78;;;10.82;37.64
6134;BME280;3098;42.678;23.364;2023-04-07T07:41:55;94705.09;;;10.45;35.84
6134;BME280;3098;42.678;23.364;2023-04-07T07:44:23;94713.53;;;9.81;39.33
6134;BME280;3098;42.678;23.364;2023-04-07T07:46:52;94461.38;;;8.94;38.39
6134;BME280;3098;42.678;23.364;2023-04-07T07:49:20;94656.53;;;9.93;37.90
6134;BME280;3098;42.678;23.364;2023-04-07T07:51:47;94705.84;;;10.19;39.30
6134;BME280;3098;42.678;23.364;2023-04-07T07:54:14;94710.91;;;9.90;39.89
6134;BME280;3098;42.678;23.364;2023-04-07T07:56:41;94726.94;;;9.85;39.46
6134;BME280;3098;42.678;23.364;2023-04-07T07:59:08;94675.63;;;10.29;37.87
6134;BME280;3098;42.678;23.364;2023-04-07T08:01:35;94708.88;;;9.87;41.49
6134;BME280;3098;42.678;23.364;2023-04-07T08:04:04;94632.41;;;10.11;40.09
6134;BME280;3098;42.678;23.364;2023-04-07T08:06:31;94708.34;;;11.10;35.76
6134;BME280;3098;42.678;23.364;2023-04-07T08:08:59;94664.69;;;10.82;34.52
6134;BME280;3098;42.678;23.364;2023-04-07T08:11:26;94686.22;;;10.89;34.11
6134;BME280;3098;42.678;23.364;2023-04-07T08:13:53;94718.53;;;10.82;34.15
6134;BME280;3098;42.678;23.364;2023-04-07T08:16:21;94677.19;;;10.21;34.39
6134;BME280;3098;42.678;23.364;2023-04-07T08:18:48;94706.34;;;10.90;35.72
6134;BME280;3098;42.678;23.364;2023-04-07T08:21:18;94707.66;;;11.39;33.97
6134;BME280;3098;42.678;23.364;2023-04-07T08:23:45;94706.28;;;11.33;33.76
6134;BME280;3098;42.678;23.364;2023-04-07T08:26:13;94707.63;;;12.02;33.26
6134;BME280;3098;42.678;23.364;2023-04-07T08:28:41;94627.34;;;11.50;32.62
6134;BME280;3098;42.678;23.364;2023-04-07T08:31:08;94676.19;;;12.46;31.71
6134;BME280;3098;42.678;23.364;2023-04-07T08:33:35;94506.91;;;10.88;32.03
6134;BME280;3098;42.678;23.364;2023-04-07T08:36:04;94538.69;;;10.42;32.97
6134;BME280;3098;42.678;23.364;2023-04-07T08:38:33;94708.34;;;11.10;33.56
6134;BME280;3098;42.678;23.364;2023-04-07T08:41:03;94537.34;;;9.10;34.58
6134;BME280;3098;42.678;23.364;2023-04-07T08:43:30;94695.34;;;10.06;35.55
6134;BME280;3098;42.678;23.364;2023-04-07T08:46:00;94701.56;;;9.93;36.27
6134;BME280;3098;42.678;23.364;2023-04-07T08:48:30;94702.25;;;9.59;36.33
6134;BME280;3098;42.678;23.364;2023-04-07T08:51:03;94710.56;;;9.83;37.42
6134;BME280;3098;42.678;23.364;2023-04-07T08:53:39;94711.34;;;9.83;35.94
6134;BME280;3098;42.678;23.364;2023-04-07T08:56:08;94640.28;;;9.77;35.56
6134;BME280;3098;42.678;23.364;2023-04-07T08:58:38;94717.31;;;9.98;35.61
6134;BME280;3098;42.678;23.364;2023-04-07T09:01:06;94701.16;;;9.29;36.50
6134;BME280;3098;42.678;23.364;2023-04-07T09:03:33;94717.34;;;9.58;35.98
6134;BME280;3098;42.678;23.364;2023-04-07T09:06:01;94728.91;;;9.40;36.83
6134;BME280;3098;42.678;23.364;2023-04-07T09:08:28;94713.91;;;9.27;35.84
6134;BME280;3098;42.678;23.364;2023-04-07T09:10:57;94665.03;;;9.24;36.35
6134;BME280;3098;42.678;23.364;2023-04-07T09:13:25;94702.91;;;10.29;35.60
6134;BME280;3098;42.678;23.364;2023-04-07T09:15:53;94712.94;;;10.50;35.21
6134;BME280;3098;42.678;23.364;2023-04-07T09:18:20;94711.19;;;10.62;34.80
6134;BME280;3098;42.678;23.364;2023-04-07T09:20:55;94706.03;;;11.72;33.74
6134;BME280;3098;42.678;23.364;2023-04-07T09:23:33;94655.84;;;11.24;32.95
6134;BME280;3098;42.678;23.364;2023-04-07T09:26:18;94716.22;;;11.53;33.15
6134;BME280;3098;42.678;23.364;2023-04-07T09:28:47;94710.31;;;10.02;35.51
6134;BME280;3098;42.678;23.364;2023-04-07T09:31:15;94676.16;;;9.44;36.10
6134;BME280;3098;42.678;23.364;2023-04-07T09:33:42;94598.41;;;8.39;37.09
6134;BME280;3098;42.678;23.364;2023-04-07T09:36:09;94715.59;;;9.23;36.86
6134;BME280;3098;42.678;23.364;2023-04-07T09:38:38;94710.66;;;8.99;36.80
6134;BME280;3098;42.678;23.364;2023-04-07T09:41:08;94644.16;;;8.92;37.35
6134;BME280;3098;42.678;23.364;2023-04-07T09:43:41;94719.34;;;9.22;37.65
6134;BME280;3098;42.678;23.364;2023-04-07T09:46:10;94559.31;;;8.49;36.94
6134;BME280;3098;42.678;23.364;2023-04-07T09:48:38;94718.03;;;9.72;36.50
6134;BME280;3098;42.678;23.364;2023-04-07T09:51:07;94712.72;;;9.72;36.47
6134;BME280;3098;42.678;23.364;2023-04-07T09:53:42;94715.47;;;9.59;36.96
6134;BME280;3098;42.678;23.364;2023-04-07T09:56:12;94609.03;;;9.40;36.33
6134;BME280;3098;42.678;23.364;2023-04-07T09:58:41;94729.09;;;10.31;36.45
6134;BME280;3098;42.678;23.364;2023-04-07T10:01:09;94730.59;;;10.06;36.52
6134;BME280;3098;42.678;23.364;2023-04-07T10:03:38;94696.41;;;10.44;35.91
6134;BME280;3098;42.678;23.364;2023-04-07T10:06:06;94668.59;;;10.84;35.76
6134;BME280;3098;42.678;23.364;2023-04-07T10:08:34;94718.13;;;11.90;34.50
6134;BME280;3098;42.678;23.364;2023-04-07T10:11:04;94657.16;;;11.10;34.50
6134;BME280;3098;42.678;23.364;2023-04-07T10:13:34;94711.00;;;12.12;33.71
6134;BME280;3098;42.678;23.364;2023-04-07T10:16:03;94657.25;;;11.68;33.90
6134;BME280;3098;42.678;23.364;2023-04-07T10:18:32;94719.16;;;12.36;33.69
6134;BME280;3098;42.678;23.364;2023-04-07T10:21:00;94694.50;;;10.79;34.47
6134;BME280;3098;42.678;23.364;2023-04-07T10:23:36;94719.78;;;10.76;35.12
6134;BME280;3098;42.678;23.364;2023-04-07T10:26:07;94682.25;;;9.92;36.22
6134;BME280;3098;42.678;23.364;2023-04-07T10:28:37;94721.31;;;9.78;37.95
6134;BME280;3098;42.678;23.364;2023-04-07T10:31:07;94715.22;;;9.38;39.10
6134;BME280;3098;42.678;23.364;2023-04-07T10:33:46;94741.06;;;9.10;39.62
6134;BME280;3098;42.678;23.364;2023-04-07T10:36:15;94730.69;;;8.56;40.99
6134;BME280;3098;42.678;23.364;2023-04-07T10:41:42;94530.56;;;7.68;41.36
6134;BME280;3098;42.678;23.364;2023-04-07T10:44:44;94734.34;;;8.68;42.58
6134;BME280;3098;42.678;23.364;2023-04-07T10:47:12;94732.72;;;7.96;44.46
6134;BME280;3098;42.678;23.364;2023-04-07T10:50:15;94733.97;;;8.12;44.61
6134;BME280;3098;42.678;23.364;2023-04-07T10:52:43;94727.78;;;8.44;43.73
6134;BME280;3098;42.678;23.364;2023-04-07T10:55:28;94736.13;;;8.24;43.92
6134;BME280;3098;42.678;23.364;2023-04-07T10:58:18;94696.25;;;7.98;43.84
6134;BME280;3098;42.678;23.364;2023-04-07T11:01:17;94747.78;;;8.09;43.18
6134;BME280;3098;42.678;23.364;2023-04-07T11:03:59;94623.06;;;7.49;43.25
6134;BME280;3098;42.678;23.364;2023-04-07T11:06:26;94723.63;;;8.02;43.65
6134;BME280;3098;42.678;23.364;2023-04-07T11:08:54;94737.31;;;8.31;43.17
6134;BME280;3098;42.678;23.364;2023-04-07T11:11:40;94741.94;;;8.84;42.68
6134;BME280;3098;42.678;23.364;2023-04-07T11:14:07;94732.53;;;9.13;42.25
6134;BME280;3098;42.678;23.364;2023-04-07T11:16:41;94734.78;;;9.29;41.57
6134;BME280;3098;42.678;23.364;2023-04-07T11:19:10;94717.84;;;9.07;42.11
6134;BME280;3098;42.678;23.364;2023-04-07T11:21:37;94669.94;;;8.87;41.76
6134;BME280;3098;42.678;23.364;2023-04-07T11:24:05;94749.94;;;8.92;42.75
6134;BME280;3098;42.678;23.364;2023-04-07T11:26:39;94747.16;;;9.19;42.46
6134;BME280;3098;42.678;23.364;2023-04-07T11:29:07;94747.19;;;8.97;42.76
6134;BME280;3098;42.678;23.364;2023-04-07T11:31:36;94753.31;;;9.06;42.84
6134;BME280;3098;42.678;23.364;2023-04-07T11:34:06;94745.91;;;9.39;42.09
6134;BME280;3098;42.678;23.364;2023-04-07T11:36:37;94711.91;;;9.02;42.59
6134;BME280;3098;42.678;23.364;2023-04-07T11:39:08;94755.47;;;9.57;41.75
6134;BME280;3098;42.678;23.364;2023-04-07T11:41:45;94686.47;;;9.23;41.61
6134;BME280;3098;42.678;23.364;2023-04-07T11:44:13;94758.81;;;9.41;42.61
6134;BME280;3098;42.678;23.364;2023-04-07T11:46:52;94763.44;;;9.57;42.31
6134;BME280;3098;42.678;23.364;2023-04-07T11:49:22;94756.63;;;9.73;41.95
6134;BME280;3098;42.678;23.364;2023-04-07T11:51:57;94702.19;;;9.19;42.52
6134;BME280;3098;42.678;23.364;2023-04-07T11:54:24;94758.72;;;9.23;42.80
6134;BME280;3098;42.678;23.364;2023-04-07T11:56:52;94687.19;;;8.84;43.11
6134;BME280;3098;42.678;23.364;2023-04-07T11:59:22;94771.97;;;9.54;42.83
6134;BME280;3098;42.678;23.364;2023-04-07T12:01:50;94743.50;;;9.60;42.49
6134;BME280;3098;42.678;23.364;2023-04-07T12:04:18;94707.44;;;9.72;41.93
6134;BME280;3098;42.678;23.364;2023-04-07T12:06:47;94743.34;;;9.65;42.52
6134;BME280;3098;42.678;23.364;2023-04-07T12:09:26;94583.81;;;8.41;42.89
6134;BME280;3098;42.678;23.364;2023-04-07T12:11:54;94655.94;;;8.42;43.79
6134;BME280;3098;42.678;23.364;2023-04-07T12:14:22;94635.16;;;8.13;44.08
6134;BME280;3098;42.678;23.364;2023-04-07T12:16:49;94747.19;;;8.97;44.29
6134;BME280;3098;42.678;23.364;2023-04-07T12:19:18;94532.13;;;7.69;44.13
6134;BME280;3098;42.678;23.364;2023-04-07T12:21:46;94678.03;;;8.46;43.78
6134;BME280;3098;42.678;23.364;2023-04-07T12:24:13;94607.72;;;8.36;43.85
6134;BME280;3098;42.678;23.364;2023-04-07T12:26:41;94729.22;;;9.69;42.66
6134;BME280;3098;42.678;23.364;2023-04-07T12:29:08;94745.03;;;9.52;43.12
6134;BME280;3098;42.678;23.364;2023-04-07T12:31:36;94596.06;;;8.59;43.21
6134;BME280;3098;42.678;23.364;2023-04-07T12:34:03;94585.44;;;8.29;43.59
6134;BME280;3098;42.678;23.364;2023-04-07T12:36:30;94754.69;;;8.82;44.31
6134;BME280;3098;42.678;23.364;2023-04-07T12:38:59;94704.63;;;8.63;44.84
6134;BME280;3098;42.678;23.364;2023-04-07T12:41:26;94745.56;;;8.65;44.94
6134;BME280;3098;42.678;23.364;2023-04-07T12:43:53;94742.66;;;8.76;44.77
6134;BME280;3098;42.678;23.364;2023-04-07T12:46:22;94657.81;;;8.05;45.72
6134;BME280;3098;42.678;23.364;2023-04-07T12:48:49;94741.94;;;8.61;46.00
6134;BME280;3098;42.678;23.364;2023-04-07T12:51:16;94701.75;;;8.73;45.31
6134;BME280;3098;42.678;23.364;2023-04-07T12:53:44;94742.06;;;9.23;44.51
6134;BME280;3098;42.678;23.364;2023-04-07T12:56:13;94745.25;;;8.89;44.85
6134;BME280;3098;42.678;23.364;2023-04-07T12:58:40;94754.84;;;8.63;45.41
6134;BME280;3098;42.678;23.364;2023-04-07T13:01:07;94749.00;;;8.52;45.97
6134;BME280;3098;42.678;23.364;2023-04-07T13:03:35;94756.81;;;8.57;45.88
6134;BME280;3098;42.678;23.364;2023-04-07T13:06:03;94717.88;;;8.49;45.33
6134;BME280;3098;42.678;23.364;2023-04-07T13:08:30;94674.31;;;8.11;45.56
6134;BME280;3098;42.678;23.364;2023-04-07T13:10:59;94555.38;;;7.31;45.81
6134;BME280;3098;42.678;23.364;2023-04-07T13:13:29;94676.09;;;8.02;46.12
6134;BME280;3098;42.678;23.364;2023-04-07T13:15:57;94763.28;;;8.51;45.74
6134;BME280;3098;42.678;23.364;2023-04-07T13:18:24;94759.47;;;8.57;46.26
6134;BME280;3098;42.678;23.364;2023-04-07T13:20:52;94717.22;;;8.66;45.66
6134;BME280;3098;42.678;23.364;2023-04-07T13:23:22;94667.69;;;7.86;45.78
6134;BME280;3098;42.678;23.364;2023-04-07T13:25:49;94728.69;;;8.12;46.17
6134;BME280;3098;42.678;23.364;2023-04-07T13:28:17;94706.59;;;8.08;46.22
6134;BME280;3098;42.678;23.364;2023-04-07T13:30:46;94526.25;;;6.54;47.34